CYTE

Cape Dorset Airport

Cape Dorset, Canada
METAR CYTE 230748Z AUTO 22008KT 6SM HZ SCT030 M23/M26 A2975 RMK SLP083
Observed Flight Rules
Feb-23 @ 07:48 UTC (25 minutes ago) Visual Flight Rules
Wind Visibility Clouds Conditions
220° at 8 knots 6 miles
  • Scattered at 3,000' AGL
  • Haze
Temperatures Readings
Current -23°C / -9°F
Dewpoint -26°C / -15°F
Humidity 77%
Altimeter 29.75" Hg
Pressure 1008.3 hPa
Elevation 47
METAR CYTE 230748Z AUTO 22008KT 6SM HZ SCT030 M23/M26 A2975 RMK SLP083
Observed Flight Rules
Feb-23 @ 07:48 UTC
(25 minutes ago)
VFR
Wind Visibility
220° at 8 knots 6 miles
Clouds
  • Scattered at 3,000' AGL
Conditions
  • Haze
Temperature Dewpoint
-23°C / -9°F -26°C / -15°F
Humidity Altimeter Pressure
77% 29.75" Hg 1008.3 hPa